This is the latest recevied weather packets stored in our database for station/object W2DRT. If no packets are shown the sender has not sent any weather packets the latest 10 day(s).
| Time | Temp. | Humidity | Pressure | Rain* | Wind** | Luminosity | Snow |
|---|---|---|---|---|---|---|---|
| 1777606854 | 10° C | 80% | 1012.3 hPa | - | - | - | - |
| 1777606250 | 10° C | 80% | 1012.3 hPa | - | - | - | - |
| 1777605648 | 10° C | 80% | 1011.9 hPa | - | - | - | - |
| 1777605044 | 10° C | 80% | 1012.3 hPa | - | - | - | - |
| 1777604443 | 10° C | 80% | 1012.3 hPa | - | - | - | - |
| 1777603840 | 10° C | 80% | 1012.3 hPa | - | - | - | - |
| 1777603238 | 10° C | 80% | 1011.9 hPa | - | - | - | - |
| 1777602635 | 10.56° C | 80% | 1012.3 hPa | - | - | - | - |
| 1777602033 | 10.56° C | 80% | 1011.9 hPa | - | - | - | - |
| 1777586366 | 17.22° C | 52% | 1008.9 hPa | - | - | - | - |
| 1777585161 | 18.89° C | 51% | 1008.9 hPa | - | - | - | - |
| 1777584560 | 20° C | 51% | 1008.5 hPa | - | - | - | - |
| 1777583956 | 20.56° C | 52% | 1008.2 hPa | - | - | - | - |
| 1777582749 | 17.78° C | 57% | 1008.2 hPa | - | - | - | - |
| 1777580938 | 16.67° C | 58% | 1008.2 hPa | - | - | - | - |
| 1777580334 | 16.67° C | 58% | 1007.9 hPa | - | - | - | - |
| 1777579733 | 16.67° C | 58% | 1007.9 hPa | - | - | - | - |
| 1777579133 | 16.67° C | 59% | 1007.9 hPa | - | - | - | - |
| 1777577324 | 17.22° C | 59% | 1007.9 hPa | - | - | - | - |
| 1777576723 | 18.33° C | 59% | 1007.9 hPa | - | - | - | - |
| 1777575517 | 17.22° C | 63% | 1007.5 hPa | - | - | - | - |
| 1777574915 | 16.67° C | 63% | 1007.9 hPa | - | - | - | - |
| 1777574314 | 16.67° C | 64% | 1008.2 hPa | - | - | - | - |
| 1777573108 | 16.11° C | 65% | 1008.2 hPa | - | - | - | - |
| 1777571903 | 15.56° C | 69% | 1008.2 hPa | - | - | - | - |
* Rain since midnight (hover to see other rain measurements)
** Current wind speed in m/s (hover to see current wind gust speed)